This is the latest recevied weather packets stored in our database for station/object YT1XN-8. If no packets are shown the sender has not sent any weather packets the latest 10 day(s).
| Time | Temp. | Humidity | Pressure | Rain* | Wind** | Luminosity | Snow |
|---|---|---|---|---|---|---|---|
| 1777960479 | 12.78° C | 72% | 1015.9 hPa | 0 mm | - | - | - |
| 1777960242 | 12.78° C | 72% | 1016 hPa | 0 mm | - | - | - |
| 1777959819 | 12.78° C | 72% | 1016 hPa | 0 mm | - | - | - |
| 1777959640 | 12.78° C | 72% | 1016 hPa | 0 mm | - | - | - |
| 1777959159 | 12.78° C | 70% | 1016 hPa | 0 mm | - | - | - |
| 1777959040 | 12.78° C | 70% | 1015.9 hPa | 0 mm | - | - | - |
| 1777958499 | 12.22° C | 67% | 1015.7 hPa | 0 mm | - | - | - |
| 1777958441 | 12.22° C | 67% | 1015.6 hPa | 0 mm | - | - | - |
| 1777957839 | 12.78° C | 67% | 1015.6 hPa | 0 mm | - | - | - |
| 1777957241 | 14.44° C | 63% | 1015.6 hPa | 0 mm | - | - | - |
| 1777957179 | 14.44° C | 63% | 1015.6 hPa | 0 mm | - | - | - |
| 1777956640 | 15° C | 58% | 1015.5 hPa | 0 mm | - | - | - |
| 1777956519 | 15.56° C | 58% | 1015.4 hPa | 0 mm | - | - | - |
| 1777956041 | 15.56° C | 57% | 1015.3 hPa | 0 mm | - | - | - |
| 1777955859 | 15.56° C | 58% | 1015.3 hPa | 0 mm | - | - | - |
| 1777955441 | 15.56° C | 56% | 1015.4 hPa | 0 mm | - | - | - |
| 1777955200 | 15° C | 57% | 1015.4 hPa | 0 mm | - | - | - |
| 1777954841 | 15° C | 57% | 1015.4 hPa | 0 mm | - | - | - |
| 1777954540 | 14.44° C | 58% | 1015.4 hPa | 0 mm | - | - | - |
| 1777954241 | 14.44° C | 58% | 1015.4 hPa | 0 mm | - | - | - |
| 1777953880 | 13.89° C | 59% | 1015.4 hPa | 0 mm | - | - | - |
| 1777953641 | 14.44° C | 59% | 1015.4 hPa | 0 mm | - | - | - |
| 1777953220 | 14.44° C | 58% | 1015.4 hPa | 0 mm | - | - | - |
| 1777953041 | 14.44° C | 58% | 1015.4 hPa | 0 mm | - | - | - |
| 1777952560 | 15° C | 56% | 1015.4 hPa | 0 mm | - | - | - |
* Rain latest hour (hover to see other rain measurements)
** Current wind speed in m/s (hover to see current wind gust speed)